Accueil
METAR-TAF:

METAR-TAF

Aéroports :

Aéroport domestique de Sharurah

Sharurah, Arabie saoudite

latitude: 17-28N, longitude: 047-07E, altitude: 720 m

Observation

Le bulletin a été fait il y a 1 heure et 5 minutes, à 12:00 UTC
Vent 7 kt de est/nord-est
Température 28°C
Humidité 16%
Pression 1017 hPa
Visibilité 10 km ou plus
pas de nuages en-dessous de 1500 mètres et pas de cumulonimbus.

METAR: OESH 201200Z 07007KT CAVOK 28/00 Q1017 NOSIG

Heure: 16:05 (13:05 UTC)

Prévision

Le bulletin a été fait il y a 2 heures et 5 minutes, à 11:00 UTC
Prévision valable du 20 à 12 UTC au 21 à 18 UTC
Vent 10 kt de nord-est
Visibilité 10 km ou plus
pas de nuages en-dessous de 1500 mètres et pas de cumulonimbus.
Evoluant progressivement
du 20 à 18 UTC au 20 à 20 UTC
Vent 3 kt de direction variable

TAF: OESH 201100Z 2012/2118 04010KT CAVOK BECMG 2018/2020 VRB03KT

Observations et prévisions météorologiques de plus de 4000 aéroports (messages METAR et TAF).

Les stations disponibles sont représentées par des disques jaunes et rouges sur la carte.

Passer la souris dessus pour voir le nom de la station.

Cliquer dessus pour voir les observations et prévisions météorologiques.

Pour changer de carte: cliquez sur les boutons verts avec une croix noire pour zoomer, sur le bouton vert avec un tiret pour effectuer un zoom arrière, ou sur les flèches vertes pour les cartes adjacentes.


METAR-TAF: